Mohammedia, Morocco
Current Conditions -  °F | °C
As of 4:00 AM on Monday 24 Nov 2014 (Local Time) from GMMB Reporting Station
Clear Clear  
Wind Chill: 59°   Ceiling: Unl
Heat Index: 59°   Visibility: NA
Dew Point: 59°   Wind: 5mph
Humidity: 100%   Direction: 250°WSW
Pressure: 29.94"   Gusts: NA
Location:  33.71°N, 7.39°W
Report Text: GMMB 240300Z AUTO 25004KT 210V280 //// NCD 15/15 Q1014
Loading
Personal Weather Stations






























Interactive Weather Map New forecast layout! Learn more

10-Day Weather Forecast

Advertisements
Track Severe Weather on mobile